createdAt,value
2022-09-20T00:00:49.386Z,79.58
2022-09-20T00:03:17.420Z,79.67
2022-09-20T00:05:45.889Z,80.04
2022-09-20T00:08:15.911Z,80.09
2022-09-20T00:10:43.380Z,79.67
2022-09-20T00:13:12.957Z,79.46
2022-09-20T00:15:44.885Z,80.12
2022-09-20T00:18:12.770Z,79.97
2022-09-20T00:20:49.672Z,79.88
2022-09-20T00:23:17.582Z,80.42
2022-09-20T00:25:44.729Z,80.44
2022-09-20T00:28:12.106Z,79.64
2022-09-20T00:30:39.421Z,79.89
2022-09-20T00:33:06.434Z,79.94
2022-09-20T00:35:33.472Z,79.98
2022-09-20T00:38:00.526Z,80.53
2022-09-20T00:40:27.476Z,80.19
2022-09-20T00:42:54.593Z,80.06
2022-09-20T00:45:26.823Z,79.87
2022-09-20T00:48:01.389Z,80.54
2022-09-20T00:50:47.809Z,80.49
2022-09-20T00:53:24.297Z,80.70
2022-09-20T00:55:56.345Z,80.68
2022-09-20T00:58:23.449Z,80.17
2022-09-20T01:00:52.054Z,80.49
2022-09-20T01:03:22.917Z,80.64
2022-09-20T01:05:51.195Z,80.56
2022-09-20T01:08:18.633Z,80.43
2022-09-20T01:10:45.721Z,80.59
2022-09-20T01:13:12.883Z,80.26
2022-09-20T01:15:40.753Z,80.69
2022-09-20T01:18:08.352Z,80.68
2022-09-20T01:20:42.778Z,80.33
2022-09-20T01:23:33.152Z,80.97
2022-09-20T01:26:34.820Z,80.92
2022-09-20T01:29:26.915Z,80.55
2022-09-20T01:31:55.516Z,81.15
2022-09-20T01:34:36.663Z,80.88
2022-09-20T01:37:03.750Z,80.94
2022-09-20T01:39:43.980Z,80.76
2022-09-20T01:42:13.591Z,81.00
2022-09-20T01:45:09.861Z,81.54
2022-09-20T01:47:45.583Z,81.52
2022-09-20T01:50:36.201Z,81.43
2022-09-20T01:53:16.744Z,81.28
2022-09-20T01:56:20.329Z,81.26
2022-09-20T01:59:25.071Z,81.38
2022-09-20T02:02:11.373Z,81.44
2022-09-20T02:05:02.683Z,80.83
2022-09-20T02:07:35.349Z,81.31
2022-09-20T02:10:37.536Z,80.87
2022-09-20T02:13:11.057Z,80.96
2022-09-20T02:15:54.265Z,81.30
2022-09-20T02:18:32.021Z,81.15
2022-09-20T02:21:16.329Z,81.43
2022-09-20T02:23:46.170Z,80.84
2022-09-20T02:26:50.452Z,81.08
2022-09-20T02:29:38.828Z,81.07
2022-09-20T02:32:27.795Z,81.22
2022-09-20T02:35:17.160Z,81.25
2022-09-20T02:38:02.813Z,81.39
2022-09-20T02:41:07.055Z,80.81
2022-09-20T02:43:43.783Z,80.73
2022-09-20T02:46:18.237Z,81.15
2022-09-20T02:48:56.248Z,81.49
2022-09-20T02:51:50.373Z,81.35
2022-09-20T02:54:48.405Z,81.72
2022-09-20T02:57:21.480Z,81.35
2022-09-20T03:00:04.679Z,81.01
2022-09-20T03:02:56.602Z,81.76
2022-09-20T03:05:26.431Z,81.41
2022-09-20T03:07:53.297Z,81.60
2022-09-20T03:10:34.493Z,81.25
2022-09-20T03:13:14.091Z,81.09
2022-09-20T03:16:09.900Z,81.87
2022-09-20T03:18:58.792Z,81.78
2022-09-20T03:21:44.430Z,81.48
2022-09-20T03:24:24.793Z,81.59
2022-09-20T03:27:36.291Z,81.56
2022-09-20T03:30:15.437Z,81.92
2022-09-20T03:33:02.239Z,81.88
2022-09-20T03:35:54.020Z,81.80
2022-09-20T03:38:39.561Z,81.37
2022-09-20T03:41:24.841Z,81.71
2022-09-20T03:43:57.764Z,81.80
2022-09-20T03:46:28.161Z,81.93
2022-09-20T03:49:16.340Z,81.92
2022-09-20T03:52:14.357Z,81.75
2022-09-20T03:55:04.355Z,82.04
2022-09-20T03:57:53.145Z,81.79
2022-09-20T04:00:31.323Z,82.00
2022-09-20T04:03:11.407Z,82.21
2022-09-20T04:06:15.750Z,81.71
2022-09-20T04:09:07.738Z,82.25
2022-09-20T04:11:44.732Z,82.14
2022-09-20T04:14:21.255Z,82.23
2022-09-20T04:17:26.876Z,82.24
2022-09-20T04:20:17.945Z,82.52
2022-09-20T04:22:45.554Z,82.01
2022-09-20T04:25:17.138Z,82.13
2022-09-20T04:27:48.330Z,82.27
2022-09-20T04:30:37.583Z,82.37
2022-09-20T04:33:16.274Z,82.10
2022-09-20T04:36:19.942Z,82.15
2022-09-20T04:38:48.900Z,82.48
2022-09-20T04:41:40.933Z,82.55
2022-09-20T04:44:22.327Z,82.51
2022-09-20T04:47:27.888Z,82.50
2022-09-20T04:50:25.694Z,82.56
2022-09-20T04:53:19.195Z,82.64
2022-09-20T04:55:52.408Z,82.55
2022-09-20T04:58:42.274Z,82.45
2022-09-20T05:01:11.278Z,82.72
2022-09-20T05:03:53.465Z,82.50
2022-09-20T05:06:39.080Z,82.41
2022-09-20T05:09:41.021Z,82.49
2022-09-20T05:12:19.902Z,82.61
2022-09-20T05:14:52.128Z,82.81
2022-09-20T05:18:01.844Z,82.09
2022-09-20T05:20:37.807Z,82.79
2022-09-20T05:23:55.799Z,82.22
2022-09-20T05:26:28.372Z,82.29
2022-09-20T05:29:42.143Z,82.24
2022-09-20T05:32:25.669Z,81.88
2022-09-20T05:35:00.609Z,82.48
2022-09-20T05:37:53.231Z,82.38
2022-09-20T05:40:29.222Z,82.10
2022-09-20T05:43:35.294Z,82.15
2022-09-20T05:46:05.878Z,81.78
2022-09-20T05:49:10.966Z,82.27
2022-09-20T05:52:02.172Z,81.63
2022-09-20T05:54:50.714Z,81.89
2022-09-20T05:57:17.710Z,81.92
2022-09-20T06:00:03.470Z,81.74
2022-09-20T06:03:02.469Z,81.83
2022-09-20T06:06:10.634Z,81.86
2022-09-20T06:09:07.541Z,81.50
2022-09-20T06:12:11.771Z,81.64
2022-09-20T06:15:02.082Z,81.47
2022-09-20T06:17:37.648Z,81.40
2022-09-20T06:20:26.626Z,81.57
2022-09-20T06:22:55.415Z,81.18
2022-09-20T06:25:34.089Z,80.86
2022-09-20T06:28:21.248Z,81.02
2022-09-20T06:30:50.432Z,80.99
2022-09-20T06:33:20.510Z,81.00
2022-09-20T06:35:58.850Z,80.97
2022-09-20T06:39:11.008Z,80.92
2022-09-20T06:41:38.837Z,80.76
2022-09-20T06:44:07.111Z,80.70
2022-09-20T06:46:36.265Z,80.51
2022-09-20T06:49:03.688Z,80.36
2022-09-20T06:51:35.380Z,80.03
2022-09-20T06:54:03.219Z,79.96
2022-09-20T06:56:32.376Z,79.57
2022-09-20T06:58:59.416Z,79.61
2022-09-20T07:01:30.570Z,79.45
2022-09-20T07:03:58.930Z,79.32
2022-09-20T07:06:26.869Z,78.76
2022-09-20T07:08:53.945Z,78.74
2022-09-20T07:11:21.408Z,78.31
2022-09-20T07:13:51.657Z,78.01
2022-09-20T07:16:18.834Z,77.79
2022-09-20T07:18:46.110Z,77.39
2022-09-20T07:21:17.688Z,77.10
2022-09-20T07:23:48.769Z,76.88
2022-09-20T07:26:21.911Z,76.57
2022-09-20T07:28:49.608Z,76.50
2022-09-20T07:31:21.019Z,76.53
2022-09-20T07:33:48.056Z,76.14
2022-09-20T07:36:15.241Z,76.03
2022-09-20T07:38:43.158Z,75.72
2022-09-20T07:41:10.850Z,75.71
2022-09-20T07:43:38.798Z,75.90
2022-09-20T07:46:06.435Z,75.43
2022-09-20T07:48:35.517Z,75.15
2022-09-20T07:51:09.064Z,74.93
2022-09-20T07:53:37.043Z,75.06
2022-09-20T07:56:08.772Z,74.68
2022-09-20T07:58:36.228Z,74.77
2022-09-20T08:01:05.899Z,74.35
2022-09-20T08:03:34.688Z,74.46
2022-09-20T08:06:10.481Z,74.12
2022-09-20T08:08:40.743Z,74.25
2022-09-20T08:11:19.842Z,74.30
2022-09-20T08:14:06.135Z,73.66
2022-09-20T08:16:39.497Z,73.70
2022-09-20T08:19:06.818Z,73.73
2022-09-20T08:21:35.431Z,73.48
2022-09-20T08:24:04.087Z,73.25
2022-09-20T08:26:31.845Z,72.96
2022-09-20T08:29:00.254Z,72.56
2022-09-20T08:31:34.548Z,72.48
2022-09-20T08:34:06.815Z,72.26
2022-09-20T08:36:37.291Z,71.94
2022-09-20T08:42:16.300Z,71.53
2022-09-20T08:45:00.941Z,71.37
2022-09-20T08:47:33.296Z,71.19
2022-09-20T08:50:09.203Z,70.94
2022-09-20T08:52:39.949Z,70.61
2022-09-20T08:55:36.809Z,70.42
2022-09-20T08:58:08.423Z,70.27
2022-09-20T09:00:37.632Z,69.94
2022-09-20T09:03:12.904Z,69.67
2022-09-20T09:05:48.171Z,69.68
2022-09-20T09:08:18.465Z,69.46
2022-09-20T09:10:48.249Z,69.44
2022-09-20T09:13:21.968Z,69.45
2022-09-20T09:15:58.230Z,69.05
2022-09-20T09:18:34.944Z,68.83
2022-09-20T09:21:05.104Z,68.50
2022-09-20T09:23:41.373Z,68.39
2022-09-20T09:26:17.703Z,68.35
2022-09-20T09:28:44.717Z,68.00
2022-09-20T09:31:33.384Z,67.63
2022-09-20T09:34:00.429Z,67.58
2022-09-20T09:36:27.547Z,67.38
2022-09-20T09:39:14.268Z,66.98
2022-09-20T09:41:41.288Z,66.79
2022-09-20T09:44:20.178Z,66.69
2022-09-20T09:46:48.010Z,66.84
2022-09-20T09:49:19.998Z,66.60
2022-09-20T09:52:04.091Z,66.45
2022-09-20T09:54:50.754Z,66.70
2022-09-20T09:57:55.802Z,66.82
2022-09-20T10:00:24.789Z,67.44
2022-09-20T10:03:01.218Z,67.74
2022-09-20T10:05:31.890Z,67.64
2022-09-20T10:08:04.547Z,68.05
2022-09-20T10:10:47.629Z,68.46
2022-09-20T10:13:26.598Z,68.70
2022-09-20T10:16:17.706Z,68.85
2022-09-20T10:18:51.618Z,68.96
2022-09-20T10:21:44.169Z,68.94
2022-09-20T10:24:31.132Z,69.41
2022-09-20T10:27:00.988Z,69.47
2022-09-20T10:29:54.050Z,69.53
2022-09-20T10:32:50.128Z,69.55
2022-09-20T10:35:55.840Z,69.93
2022-09-20T10:38:32.339Z,69.98
2022-09-20T10:41:25.429Z,69.81
2022-09-20T10:44:13.440Z,70.27
2022-09-20T10:46:59.598Z,70.07
2022-09-20T10:49:47.193Z,70.25
2022-09-20T10:52:31.665Z,70.12
2022-09-20T10:55:25.620Z,70.48
2022-09-20T10:58:43.621Z,70.11
2022-09-20T11:01:21.701Z,70.21
2022-09-20T11:04:19.430Z,70.26
2022-09-20T11:07:17.062Z,70.24
2022-09-20T11:09:52.747Z,70.08
2022-09-20T11:12:35.397Z,70.21
2022-09-20T11:15:32.590Z,69.97
2022-09-20T11:18:23.659Z,69.84
2022-09-20T11:21:00.206Z,69.72
2022-09-20T11:23:51.088Z,69.46
2022-09-20T11:26:35.737Z,69.17
2022-09-20T11:29:11.307Z,68.68
2022-09-20T11:31:42.942Z,68.43
2022-09-20T11:34:15.810Z,68.05
2022-09-20T11:36:45.607Z,67.57
2022-09-20T11:39:20.646Z,67.40
2022-09-20T11:41:50.047Z,67.00
2022-09-20T11:44:18.689Z,66.83
2022-09-20T11:46:48.890Z,66.55
2022-09-20T11:49:24.378Z,66.16
2022-09-20T11:52:22.239Z,65.84
2022-09-20T11:55:24.595Z,65.53
2022-09-20T11:58:01.670Z,65.08
2022-09-20T12:00:31.219Z,64.58
2022-09-20T12:02:59.298Z,64.56
2022-09-20T12:05:39.960Z,64.11
2022-09-20T12:08:25.868Z,63.63
2022-09-20T12:10:58.947Z,63.66
2022-09-20T12:13:27.898Z,63.86
2022-09-20T12:16:43.105Z,64.11
2022-09-20T12:19:15.238Z,64.34
2022-09-20T12:22:00.899Z,64.79
2022-09-20T12:24:45.372Z,65.18
2022-09-20T12:27:41.687Z,65.89
2022-09-20T12:30:22.292Z,66.13
2022-09-20T12:32:55.167Z,65.96
2022-09-20T12:35:57.189Z,66.50
2022-09-20T12:38:31.347Z,66.50
2022-09-20T12:41:08.418Z,66.79
2022-09-20T12:43:39.718Z,66.66
2022-09-20T12:46:11.878Z,66.92
2022-09-20T12:48:39.320Z,67.02
2022-09-20T12:51:33.567Z,67.04
2022-09-20T12:54:06.628Z,67.35
2022-09-20T12:56:37.537Z,67.62
2022-09-20T12:59:07.800Z,67.58
2022-09-20T13:01:38.317Z,67.59
2022-09-20T13:04:42.891Z,67.37
2022-09-20T13:07:38.786Z,67.40
2022-09-20T13:10:23.770Z,67.59
2022-09-20T13:12:58.648Z,67.45
2022-09-20T13:15:25.821Z,67.42
2022-09-20T13:17:55.608Z,67.74
2022-09-20T13:20:31.101Z,67.55
2022-09-20T13:23:00.471Z,67.71
2022-09-20T13:25:28.689Z,67.54
2022-09-20T13:28:19.073Z,67.73
2022-09-20T13:30:48.120Z,67.86
2022-09-20T13:33:23.340Z,67.83
2022-09-20T13:35:57.230Z,68.08
2022-09-20T13:38:27.942Z,67.62
2022-09-20T13:41:02.390Z,67.81
2022-09-20T13:43:37.078Z,67.69
2022-09-20T13:46:24.128Z,67.73
2022-09-20T13:49:23.777Z,67.48
2022-09-20T13:51:52.138Z,67.86
2022-09-20T13:54:39.408Z,67.67
2022-09-20T13:57:15.894Z,67.65
2022-09-20T13:59:47.707Z,67.74
2022-09-20T14:02:28.088Z,67.89
2022-09-20T14:04:57.638Z,67.78
2022-09-20T14:07:28.378Z,68.02
2022-09-20T14:09:56.742Z,68.05
2022-09-20T14:12:24.517Z,67.87
2022-09-20T14:14:51.908Z,67.75
2022-09-20T14:17:22.062Z,67.64
2022-09-20T14:19:52.298Z,67.78
2022-09-20T14:22:27.503Z,67.81
2022-09-20T14:25:13.151Z,67.75
2022-09-20T14:27:40.159Z,67.83
2022-09-20T14:30:27.738Z,67.52
2022-09-20T14:32:56.478Z,67.67
2022-09-20T14:35:23.890Z,67.62
2022-09-20T14:38:00.277Z,67.42
2022-09-20T14:40:29.707Z,67.42
2022-09-20T14:42:59.005Z,67.46
2022-09-20T14:45:29.515Z,67.66
2022-09-20T14:48:00.268Z,67.41
2022-09-20T14:50:41.623Z,67.43
2022-09-20T14:53:11.471Z,67.70
2022-09-20T14:55:40.439Z,67.60
2022-09-20T14:58:11.998Z,67.67
2022-09-20T15:01:16.644Z,67.27
2022-09-20T15:03:43.703Z,67.35
2022-09-20T15:06:11.838Z,67.52
2022-09-20T15:08:44.028Z,67.55
2022-09-20T15:11:17.369Z,67.47
2022-09-20T15:13:44.704Z,67.85
2022-09-20T15:16:15.449Z,68.06
2022-09-20T15:18:43.772Z,68.03
2022-09-20T15:21:13.892Z,68.08
2022-09-20T15:23:40.942Z,68.10
2022-09-20T15:26:10.116Z,68.37
2022-09-20T15:28:37.297Z,68.63
2022-09-20T15:31:04.671Z,68.70
2022-09-20T15:33:33.967Z,69.21
2022-09-20T15:36:02.688Z,69.10
2022-09-20T15:38:29.796Z,69.40
2022-09-20T15:40:56.742Z,69.59
2022-09-20T15:43:27.260Z,69.91
2022-09-20T15:46:02.460Z,70.40
2022-09-20T15:48:31.089Z,70.45
2022-09-20T15:51:00.658Z,70.60
2022-09-20T15:53:39.795Z,70.92
2022-09-20T15:56:21.458Z,71.30
2022-09-20T15:58:50.690Z,71.36
2022-09-20T16:01:19.588Z,71.88
2022-09-20T16:03:47.047Z,71.73
2022-09-20T16:06:14.120Z,71.77
2022-09-20T16:08:43.051Z,72.18
2022-09-20T16:11:20.451Z,72.27
2022-09-20T16:13:57.699Z,72.50
2022-09-20T16:16:25.962Z,72.47
2022-09-20T16:19:11.910Z,72.97
2022-09-20T16:21:40.695Z,72.89
2022-09-20T16:24:08.262Z,73.15
2022-09-20T16:26:35.959Z,73.44
2022-09-20T16:29:05.056Z,73.63
2022-09-20T16:31:50.675Z,73.86
2022-09-20T16:34:20.415Z,74.00
2022-09-20T16:36:51.004Z,74.06
2022-09-20T16:39:19.180Z,74.29
2022-09-20T16:41:47.963Z,74.56
2022-09-20T16:44:15.662Z,74.39
2022-09-20T16:46:44.673Z,74.61
2022-09-20T16:49:13.460Z,74.83
2022-09-20T16:51:41.902Z,74.85
2022-09-20T16:54:14.007Z,74.95
2022-09-20T16:56:43.626Z,75.15
2022-09-20T16:59:11.310Z,75.47
2022-09-20T17:01:39.810Z,75.50
2022-09-20T17:04:07.729Z,75.83
2022-09-20T17:06:36.678Z,75.69
2022-09-20T17:09:08.541Z,76.00
2022-09-20T17:11:45.776Z,76.15
2022-09-20T17:14:14.319Z,76.23
2022-09-20T17:16:42.380Z,76.30
2022-09-20T17:19:11.217Z,76.45
2022-09-20T17:21:43.927Z,76.31
2022-09-20T17:24:11.408Z,76.50
2022-09-20T17:26:40.934Z,76.67
2022-09-20T17:29:10.442Z,76.77
2022-09-20T17:31:39.516Z,76.53
2022-09-20T17:34:09.571Z,76.82
2022-09-20T17:36:41.884Z,76.65
2022-09-20T17:39:11.097Z,76.86
2022-09-20T17:41:42.128Z,76.96
2022-09-20T17:44:10.186Z,76.95
2022-09-20T17:46:39.402Z,77.13
2022-09-20T17:49:08.796Z,77.44
2022-09-20T17:51:41.426Z,77.16
2022-09-20T17:54:09.245Z,77.11
2022-09-20T17:56:36.586Z,77.45
2022-09-20T17:59:05.904Z,77.30
2022-09-20T18:01:35.093Z,77.11
2022-09-20T18:04:03.165Z,77.43
2022-09-20T18:06:31.521Z,77.66
2022-09-20T18:09:04.429Z,77.29
2022-09-20T18:11:35.367Z,77.50
2022-09-20T18:14:03.533Z,77.69
2022-09-20T18:16:31.191Z,77.64
2022-09-20T18:18:59.837Z,77.90
2022-09-20T18:21:30.467Z,77.83
2022-09-20T18:23:58.820Z,78.02
2022-09-20T18:26:30.337Z,78.18
2022-09-20T18:29:19.387Z,78.06
2022-09-20T18:31:48.683Z,78.07
2022-09-20T18:34:18.520Z,78.11
2022-09-20T18:36:53.659Z,78.26
2022-09-20T18:39:25.489Z,78.29
2022-09-20T18:41:54.581Z,78.36
2022-09-20T18:44:25.275Z,78.24
2022-09-20T18:46:54.485Z,78.31
2022-09-20T18:49:23.500Z,78.29
2022-09-20T18:51:51.299Z,78.36
2022-09-20T18:54:19.115Z,78.46
2022-09-20T18:56:48.217Z,78.41
2022-09-20T18:59:25.436Z,78.31
2022-09-20T19:01:55.917Z,78.67
2022-09-20T19:04:40.239Z,78.94
2022-09-20T19:07:17.168Z,78.81
2022-09-20T19:10:48.881Z,78.84
2022-09-20T19:13:42.586Z,78.84
2022-09-20T19:16:20.199Z,78.86
2022-09-20T19:19:06.776Z,78.83
2022-09-20T19:21:57.336Z,79.01
2022-09-20T19:25:01.613Z,78.95
2022-09-20T19:27:28.889Z,79.20
2022-09-20T19:29:56.481Z,79.00
2022-09-20T19:32:26.416Z,79.25
2022-09-20T19:35:02.035Z,79.40
2022-09-20T19:37:33.308Z,79.04
2022-09-20T19:40:38.704Z,79.40
2022-09-20T19:43:28.410Z,79.47
2022-09-20T19:46:17.662Z,79.58
2022-09-20T19:48:56.649Z,79.18
2022-09-20T19:51:24.177Z,79.41
2022-09-20T19:53:53.650Z,79.40
2022-09-20T19:56:21.784Z,79.51
2022-09-20T19:58:53.131Z,79.45
2022-09-20T20:01:24.628Z,79.34
2022-09-20T20:03:53.661Z,79.46
2022-09-20T20:06:29.362Z,79.76
2022-09-20T20:09:33.974Z,79.26
2022-09-20T20:12:25.586Z,79.32
2022-09-20T20:15:14.792Z,79.36
2022-09-20T20:18:21.133Z,79.39
2022-09-20T20:20:49.730Z,79.49
2022-09-20T20:23:45.798Z,79.62
2022-09-20T20:26:25.703Z,79.60
2022-09-20T20:28:53.598Z,79.38
2022-09-20T20:31:21.187Z,79.65
2022-09-20T20:33:48.785Z,79.80
2022-09-20T20:36:17.212Z,79.88
2022-09-20T20:38:49.652Z,80.00
2022-09-20T20:41:21.313Z,79.95
2022-09-20T20:43:52.821Z,79.88
2022-09-20T20:46:19.930Z,79.80
2022-09-20T20:48:50.282Z,79.56
2022-09-20T20:51:19.739Z,79.74
2022-09-20T20:53:49.369Z,80.01
2022-09-20T20:56:28.580Z,79.88
2022-09-20T20:59:00.794Z,79.83
2022-09-20T21:01:30.703Z,79.85
2022-09-20T21:03:58.909Z,80.05
2022-09-20T21:06:30.662Z,79.74
2022-09-20T21:08:58.290Z,80.06
2022-09-20T21:11:27.955Z,79.90
2022-09-20T21:13:59.808Z,79.92
2022-09-20T21:16:28.723Z,79.87
2022-09-20T21:18:55.999Z,79.98
2022-09-20T21:21:31.243Z,79.71
2022-09-20T21:24:00.173Z,79.93
2022-09-20T21:26:28.381Z,80.11
2022-09-20T21:28:59.931Z,79.79
2022-09-20T21:31:28.969Z,79.92
2022-09-20T21:33:56.988Z,79.76
2022-09-20T21:36:27.078Z,80.10
2022-09-20T21:38:54.253Z,79.55
2022-09-20T21:41:23.680Z,79.74
2022-09-20T21:43:55.541Z,79.90
2022-09-20T21:46:35.617Z,79.91
2022-09-20T21:49:04.768Z,79.70
2022-09-20T21:51:32.983Z,80.01
2022-09-20T21:54:01.728Z,79.60
2022-09-20T21:56:31.342Z,79.74
2022-09-20T21:58:59.471Z,79.60
2022-09-20T22:01:28.038Z,79.82
2022-09-20T22:03:58.964Z,79.42
2022-09-20T22:06:31.123Z,79.95
2022-09-20T22:09:01.216Z,79.36
2022-09-20T22:11:33.350Z,79.62
2022-09-20T22:14:00.445Z,79.77
2022-09-20T22:16:31.288Z,79.75
2022-09-20T22:19:02.248Z,79.72
2022-09-20T22:21:37.982Z,79.78
2022-09-20T22:24:08.008Z,79.80
2022-09-20T22:26:37.643Z,79.65
2022-09-20T22:29:05.290Z,79.73
2022-09-20T22:31:36.759Z,79.89
2022-09-20T22:34:06.618Z,79.98
2022-09-20T22:36:36.120Z,79.76
2022-09-20T22:39:04.488Z,79.96
2022-09-20T22:41:31.573Z,79.76
2022-09-20T22:43:58.505Z,80.07
2022-09-20T22:46:28.412Z,80.20
2022-09-20T22:48:55.716Z,79.72
2022-09-20T22:51:25.487Z,80.23
2022-09-20T22:53:52.846Z,80.25
2022-09-20T22:56:30.593Z,80.21
2022-09-20T22:59:00.794Z,80.05
2022-09-20T23:01:30.291Z,80.21
2022-09-20T23:03:59.686Z,80.06
2022-09-20T23:06:30.840Z,80.02
2022-09-20T23:09:00.272Z,80.52
2022-09-20T23:11:27.812Z,80.33
2022-09-20T23:13:56.660Z,80.13
2022-09-20T23:16:26.763Z,79.94
2022-09-20T23:18:55.039Z,80.11
2022-09-20T23:21:22.802Z,80.42
2022-09-20T23:24:03.592Z,80.03
2022-09-20T23:26:32.623Z,80.33
2022-09-20T23:29:02.503Z,80.30
2022-09-20T23:31:30.871Z,80.35
2022-09-20T23:34:02.553Z,80.57
2022-09-20T23:36:32.024Z,80.59
2022-09-20T23:38:59.930Z,80.77
2022-09-20T23:41:28.134Z,80.53
2022-09-20T23:43:55.543Z,80.90
2022-09-20T23:46:24.027Z,80.77
2022-09-20T23:48:51.286Z,80.92
2022-09-20T23:51:23.711Z,80.63
2022-09-20T23:53:51.781Z,80.50
2022-09-20T23:56:19.302Z,80.44
2022-09-20T23:58:46.394Z,81.06
